Terminal Aerodrome Forecast
Issued by NWS Binghamton, NY

Home | Current Version | Previous Version | Text Only | Print | Product List | Glossary On
Versions: 1 2 3 4 5 6 7 8 9 10 11 12 13 14 15 16 17 18 19 20
000
FTUS41 KBGM 310300 AAA
TAFAVP
TAF AMD
KAVP 310358Z 3104/3124 20007KT P6SM OVC025
     FM310600 22004KT 5SM BR OVC015
     FM311600 23007KT P6SM SCT025 BKN040
      TEMPO 3116/3120 -SHRA OVC025=

USA.gov is the U.S. government's official web portal to all federal, state and local government web resources and services.